createdAt,value
2023-05-25T00:00:53.492Z,25.30
2023-05-25T00:03:34.063Z,26.10
2023-05-25T00:06:02.756Z,27.00
2023-05-25T00:08:30.138Z,26.40
2023-05-25T00:10:57.715Z,25.70
2023-05-25T00:13:25.679Z,26.90
2023-05-25T00:15:53.298Z,27.10
2023-05-25T00:18:21.173Z,26.50
2023-05-25T00:20:48.736Z,26.40
2023-05-25T00:23:16.187Z,27.00
2023-05-25T00:25:43.602Z,28.20
2023-05-25T00:28:11.857Z,27.90
2023-05-25T00:30:39.531Z,28.50
2023-05-25T00:33:07.194Z,28.80
2023-05-25T00:35:34.536Z,29.70
2023-05-25T00:38:01.687Z,28.70
2023-05-25T00:40:29.136Z,28.90
2023-05-25T00:42:57.089Z,30.50
2023-05-25T00:45:24.843Z,29.30
2023-05-25T00:47:54.543Z,29.40
2023-05-25T00:50:35.424Z,28.90
2023-05-25T00:53:03.080Z,29.80
2023-05-25T00:55:34.945Z,30.40
2023-05-25T00:58:05.047Z,30.90
2023-05-25T01:00:34.428Z,30.90
2023-05-25T01:03:02.296Z,32.70
2023-05-25T01:05:31.123Z,33.30
2023-05-25T01:08:03.598Z,34.00
2023-05-25T01:10:32.877Z,34.30
2023-05-25T01:13:01.084Z,32.20
2023-05-25T01:15:29.728Z,35.10
2023-05-25T01:17:59.705Z,34.10
2023-05-25T01:20:30.164Z,35.80
2023-05-25T01:23:01.753Z,34.80
2023-05-25T01:25:34.580Z,37.00
2023-05-25T01:28:08.154Z,36.30
2023-05-25T01:30:38.055Z,35.60
2023-05-25T01:33:06.417Z,38.30
2023-05-25T01:35:36.707Z,37.70
2023-05-25T01:38:04.417Z,38.00
2023-05-25T01:40:32.014Z,38.40
2023-05-25T01:43:01.493Z,37.90
2023-05-25T01:45:29.353Z,38.00
2023-05-25T01:48:08.631Z,39.20
2023-05-25T01:50:44.577Z,38.00
2023-05-25T01:53:20.278Z,35.60
2023-05-25T01:55:55.130Z,35.40
2023-05-25T01:58:23.811Z,36.80
2023-05-25T02:00:52.912Z,34.70
2023-05-25T02:03:21.402Z,36.60
2023-05-25T02:05:50.211Z,35.20
2023-05-25T02:08:17.843Z,34.40
2023-05-25T02:10:45.130Z,37.20
2023-05-25T02:13:12.761Z,36.00
2023-05-25T02:15:39.885Z,35.50
2023-05-25T02:18:08.898Z,34.20
2023-05-25T02:20:37.586Z,36.80
2023-05-25T02:23:05.201Z,33.70
2023-05-25T02:25:32.332Z,34.80
2023-05-25T02:28:00.170Z,35.40
2023-05-25T02:30:27.827Z,36.90
2023-05-25T02:32:55.488Z,35.00
2023-05-25T02:35:23.386Z,35.30
2023-05-25T02:37:52.066Z,34.20
2023-05-25T02:40:20.314Z,34.70
2023-05-25T02:42:47.913Z,35.50
2023-05-25T02:45:15.706Z,33.60
2023-05-25T02:47:42.915Z,35.60
2023-05-25T02:50:11.595Z,34.20
2023-05-25T02:52:43.136Z,33.70
2023-05-25T02:55:13.434Z,33.90
2023-05-25T02:57:41.232Z,34.00
2023-05-25T03:00:12.487Z,32.90
2023-05-25T03:02:40.097Z,32.60
2023-05-25T03:05:09.084Z,33.80
2023-05-25T03:07:36.615Z,34.50
2023-05-25T03:10:04.072Z,32.70
2023-05-25T03:12:33.022Z,34.10
2023-05-25T03:15:00.400Z,35.40
2023-05-25T03:17:27.968Z,35.50
2023-05-25T03:19:55.207Z,33.70
2023-05-25T03:22:22.446Z,32.90
2023-05-25T03:24:50.385Z,34.70
2023-05-25T03:27:17.824Z,33.30
2023-05-25T03:29:45.626Z,33.00
2023-05-25T03:32:14.042Z,34.10
2023-05-25T03:34:41.540Z,33.90
2023-05-25T03:37:12.276Z,35.10
2023-05-25T03:39:40.120Z,33.40
2023-05-25T03:42:08.347Z,34.00
2023-05-25T03:44:37.255Z,33.70
2023-05-25T03:47:06.097Z,34.30
2023-05-25T03:49:33.406Z,33.80
2023-05-25T03:52:01.424Z,35.60
2023-05-25T03:54:28.665Z,32.00
2023-05-25T03:57:12.068Z,33.20
2023-05-25T03:59:39.645Z,32.50
2023-05-25T04:02:07.104Z,31.70
2023-05-25T04:04:34.770Z,32.00
2023-05-25T04:07:03.527Z,31.70
2023-05-25T04:09:31.086Z,32.20
2023-05-25T04:11:58.344Z,31.80
2023-05-25T04:14:25.727Z,31.00
2023-05-25T04:16:53.533Z,32.10
2023-05-25T04:19:20.616Z,31.00
2023-05-25T04:21:48.109Z,32.50
2023-05-25T04:24:16.234Z,31.30
2023-05-25T04:26:43.792Z,31.10
2023-05-25T04:29:12.268Z,30.30
2023-05-25T04:31:59.554Z,31.10
2023-05-25T04:34:45.177Z,31.50
2023-05-25T04:37:18.188Z,30.30
2023-05-25T04:39:46.266Z,30.90
2023-05-25T04:42:13.578Z,32.00
2023-05-25T04:44:41.145Z,30.90
2023-05-25T04:47:10.866Z,29.00
2023-05-25T04:49:39.025Z,31.20
2023-05-25T04:52:09.051Z,30.40
2023-05-25T04:54:37.121Z,29.20
2023-05-25T04:57:05.052Z,30.50
2023-05-25T04:59:32.644Z,30.00
2023-05-25T05:02:01.125Z,30.30
2023-05-25T05:04:28.380Z,29.70
2023-05-25T05:06:58.778Z,30.10
2023-05-25T05:09:28.105Z,29.40
2023-05-25T05:11:57.617Z,32.60
2023-05-25T05:14:24.799Z,32.00
2023-05-25T05:16:53.455Z,29.60
2023-05-25T05:19:21.739Z,29.30
2023-05-25T05:21:52.569Z,29.00
2023-05-25T05:24:20.713Z,29.80
2023-05-25T05:26:58.223Z,30.50
2023-05-25T05:29:47.942Z,30.90
2023-05-25T05:32:15.982Z,28.20
2023-05-25T05:34:43.648Z,28.30
2023-05-25T05:37:22.877Z,28.30
2023-05-25T05:39:52.919Z,29.60
2023-05-25T05:42:20.447Z,27.20
2023-05-25T05:44:47.770Z,29.20
2023-05-25T05:47:15.059Z,29.70
2023-05-25T05:49:42.718Z,30.20
2023-05-25T05:52:11.868Z,30.00
2023-05-25T05:54:39.692Z,28.70
2023-05-25T05:57:11.131Z,28.50
2023-05-25T05:59:38.318Z,27.50
2023-05-25T06:02:07.600Z,26.60
2023-05-25T06:04:35.693Z,28.20
2023-05-25T06:07:03.930Z,28.30
2023-05-25T06:09:31.082Z,29.20
2023-05-25T06:12:00.539Z,26.80
2023-05-25T06:14:28.947Z,27.30
2023-05-25T06:16:58.809Z,26.60
2023-05-25T06:19:26.544Z,26.10
2023-05-25T06:21:54.303Z,27.00
2023-05-25T06:24:21.760Z,27.50
2023-05-25T06:26:49.556Z,26.70
2023-05-25T06:29:17.580Z,27.90
2023-05-25T06:31:44.887Z,27.00
2023-05-25T06:34:12.722Z,26.70
2023-05-25T06:36:41.787Z,27.70
2023-05-25T06:39:10.403Z,28.10
2023-05-25T06:41:41.420Z,27.50
2023-05-25T06:44:08.614Z,26.70
2023-05-25T06:46:46.486Z,28.80
2023-05-25T06:49:15.582Z,27.90
2023-05-25T06:51:43.013Z,27.50
2023-05-25T06:54:12.071Z,27.00
2023-05-25T06:56:39.309Z,25.90
2023-05-25T06:59:06.659Z,26.60
2023-05-25T07:01:34.364Z,27.90
2023-05-25T07:04:01.718Z,27.10
2023-05-25T07:06:28.848Z,27.70
2023-05-25T07:08:56.711Z,27.10
2023-05-25T07:11:23.860Z,27.20
2023-05-25T07:13:51.002Z,27.10
2023-05-25T07:16:18.359Z,26.70
2023-05-25T07:18:45.594Z,26.60
2023-05-25T07:21:12.835Z,25.50
2023-05-25T07:23:41.256Z,26.10
2023-05-25T07:26:08.405Z,28.20
2023-05-25T07:28:35.616Z,25.60
2023-05-25T07:31:02.958Z,26.30
2023-05-25T07:33:30.111Z,25.80
2023-05-25T07:35:57.214Z,25.50
2023-05-25T07:38:24.543Z,24.80
2023-05-25T07:40:52.734Z,24.70
2023-05-25T07:43:21.176Z,25.00
2023-05-25T07:45:48.588Z,24.60
2023-05-25T07:48:16.326Z,24.80
2023-05-25T07:50:43.776Z,24.20
2023-05-25T07:53:11.325Z,24.60
2023-05-25T07:55:38.617Z,24.10
2023-05-25T07:58:07.613Z,25.50
2023-05-25T08:00:34.862Z,25.30
2023-05-25T08:03:02.877Z,22.70
2023-05-25T08:05:30.717Z,23.20
2023-05-25T08:07:58.092Z,23.60
2023-05-25T08:10:31.520Z,23.20
2023-05-25T08:12:59.637Z,23.50
2023-05-25T08:15:27.856Z,23.90
2023-05-25T08:17:57.195Z,23.70
2023-05-25T08:20:26.245Z,23.00
2023-05-25T08:22:54.830Z,23.10
2023-05-25T08:25:22.521Z,22.00
2023-05-25T08:27:49.958Z,22.10
2023-05-25T08:30:17.519Z,22.20
2023-05-25T08:32:45.444Z,22.00
2023-05-25T08:35:14.451Z,20.80
2023-05-25T08:37:43.740Z,22.30
2023-05-25T08:40:17.631Z,21.70
2023-05-25T08:42:46.114Z,20.60
2023-05-25T08:45:26.383Z,19.50
2023-05-25T08:48:02.811Z,19.60
2023-05-25T08:50:32.556Z,21.00
2023-05-25T08:53:03.306Z,19.80
2023-05-25T08:55:36.554Z,18.70
2023-05-25T08:58:08.447Z,18.70
2023-05-25T09:00:40.087Z,19.40
2023-05-25T09:03:12.993Z,19.70
2023-05-25T09:05:42.152Z,19.20
2023-05-25T09:08:10.502Z,20.80
2023-05-25T09:10:38.506Z,20.30
2023-05-25T09:13:20.544Z,19.60
2023-05-25T09:15:49.177Z,19.40
2023-05-25T09:18:16.281Z,18.80
2023-05-25T09:20:46.233Z,17.80
2023-05-25T09:23:14.513Z,18.00
2023-05-25T09:25:43.976Z,18.10
2023-05-25T09:30:42.793Z,20.20
2023-05-25T09:33:14.297Z,18.50
2023-05-25T09:35:42.600Z,16.00
2023-05-25T09:38:10.286Z,19.00
2023-05-25T09:40:39.376Z,19.90
2023-05-25T09:43:06.834Z,19.00
2023-05-25T09:45:35.136Z,18.00
2023-05-25T09:48:04.025Z,18.50
2023-05-25T09:50:32.650Z,19.10
2023-05-25T09:53:02.320Z,18.30
2023-05-25T09:55:40.321Z,18.30
2023-05-25T09:58:18.336Z,18.50
2023-05-25T10:00:46.806Z,17.90
2023-05-25T10:03:15.575Z,19.10
2023-05-25T10:05:42.960Z,17.70
2023-05-25T10:08:11.961Z,19.30
2023-05-25T10:10:40.196Z,18.40
2023-05-25T10:13:11.389Z,19.70
2023-05-25T10:15:41.858Z,19.00
2023-05-25T10:18:10.557Z,18.60
2023-05-25T10:20:39.420Z,19.50
2023-05-25T10:23:11.250Z,18.10
2023-05-25T10:25:45.423Z,19.00
2023-05-25T10:28:16.713Z,18.70
2023-05-25T10:30:44.387Z,19.10
2023-05-25T10:33:13.602Z,19.30
2023-05-25T10:36:01.691Z,18.40
2023-05-25T10:38:31.813Z,18.60
2023-05-25T10:40:59.653Z,17.80
2023-05-25T10:43:27.789Z,18.20
2023-05-25T10:45:56.189Z,16.60
2023-05-25T10:48:24.909Z,16.10
2023-05-25T10:50:54.299Z,16.60
2023-05-25T10:53:23.287Z,17.00
2023-05-25T10:56:05.633Z,16.00
2023-05-25T10:58:34.443Z,17.10
2023-05-25T11:01:03.509Z,32.50
2023-05-25T11:03:51.852Z,15.60
2023-05-25T11:06:21.669Z,14.40
2023-05-25T11:08:59.198Z,15.50
2023-05-25T11:12:06.650Z,14.30
2023-05-25T11:14:37.309Z,13.70
2023-05-25T11:17:13.110Z,13.80
2023-05-25T11:19:46.277Z,12.40
2023-05-25T11:22:20.791Z,12.30
2023-05-25T11:24:48.225Z,11.70
2023-05-25T11:27:15.675Z,11.60
2023-05-25T11:29:42.976Z,12.00
2023-05-25T11:32:15.520Z,12.40
2023-05-25T11:34:46.940Z,13.50
2023-05-25T11:37:16.181Z,13.00
2023-05-25T11:39:44.109Z,12.50
2023-05-25T11:42:12.467Z,12.30
2023-05-25T11:44:39.745Z,11.20
2023-05-25T11:47:09.995Z,11.00
2023-05-25T11:49:40.217Z,11.00
2023-05-25T11:52:09.711Z,12.70
2023-05-25T11:54:37.791Z,11.40
2023-05-25T11:57:05.150Z,12.00
2023-05-25T11:59:33.642Z,11.90
2023-05-25T12:02:05.276Z,12.10
2023-05-25T12:04:34.299Z,11.50
2023-05-25T12:07:09.096Z,12.60
2023-05-25T12:09:38.007Z,12.60
2023-05-25T12:12:06.712Z,12.40
2023-05-25T12:14:37.516Z,11.70
2023-05-25T12:17:04.927Z,12.20
2023-05-25T12:19:32.468Z,11.80
2023-05-25T12:22:00.120Z,11.00
2023-05-25T12:24:27.542Z,12.00
2023-05-25T12:26:57.666Z,11.20
2023-05-25T12:29:25.561Z,11.60
2023-05-25T12:31:53.102Z,11.90
2023-05-25T12:34:21.569Z,11.20
2023-05-25T12:36:52.964Z,10.30
2023-05-25T12:39:35.149Z,10.40
2023-05-25T12:42:03.919Z,10.60
2023-05-25T12:44:32.710Z,9.90
2023-05-25T12:47:13.174Z,10.10
2023-05-25T12:49:41.756Z,11.10
2023-05-25T12:52:10.228Z,11.50
2023-05-25T12:54:41.093Z,9.80
2023-05-25T12:57:09.347Z,10.20
2023-05-25T12:59:37.484Z,9.60
2023-05-25T13:02:06.542Z,10.10
2023-05-25T13:04:33.861Z,9.90
2023-05-25T13:07:01.748Z,10.10
2023-05-25T13:09:29.549Z,9.50
2023-05-25T13:11:57.757Z,9.80
2023-05-25T13:14:25.492Z,10.00
2023-05-25T13:16:54.065Z,9.40
2023-05-25T13:19:23.111Z,9.30
2023-05-25T13:21:51.930Z,9.40
2023-05-25T13:24:19.804Z,9.70
2023-05-25T13:26:49.159Z,9.50
2023-05-25T13:29:17.989Z,9.00
2023-05-25T13:31:45.418Z,9.60
2023-05-25T13:34:12.698Z,8.40
2023-05-25T13:36:39.921Z,8.90
2023-05-25T13:39:07.592Z,8.50
2023-05-25T13:41:35.069Z,8.90
2023-05-25T13:44:02.806Z,8.60
2023-05-25T13:46:35.280Z,9.30
2023-05-25T13:49:02.866Z,9.10
2023-05-25T13:51:30.128Z,9.20
2023-05-25T13:53:57.535Z,8.70
2023-05-25T13:56:24.635Z,9.40
2023-05-25T13:58:52.061Z,9.70
2023-05-25T14:01:19.395Z,9.50
2023-05-25T14:03:47.088Z,9.20
2023-05-25T14:06:14.736Z,9.20
2023-05-25T14:08:41.988Z,10.00
2023-05-25T14:11:09.500Z,10.40
2023-05-25T14:13:37.075Z,9.80
2023-05-25T14:16:04.666Z,10.00
2023-05-25T14:18:31.849Z,9.80
2023-05-25T14:20:59.623Z,10.10
2023-05-25T14:23:26.779Z,9.80
2023-05-25T14:25:54.036Z,10.80
2023-05-25T14:28:21.303Z,11.20
2023-05-25T14:30:48.679Z,10.10
2023-05-25T14:33:17.361Z,9.70
2023-05-25T14:35:45.022Z,10.90
2023-05-25T14:38:12.512Z,9.90
2023-05-25T14:40:39.589Z,9.70
2023-05-25T14:43:06.936Z,10.10
2023-05-25T14:45:34.286Z,10.50
2023-05-25T14:48:15.276Z,9.80
2023-05-25T14:50:44.768Z,9.40
2023-05-25T14:53:12.311Z,8.90
2023-05-25T14:55:41.007Z,9.70
2023-05-25T14:58:08.304Z,9.70
2023-05-25T15:00:35.410Z,9.30
2023-05-25T15:03:03.140Z,9.00
2023-05-25T15:05:30.625Z,8.90
2023-05-25T15:07:59.193Z,8.80
2023-05-25T15:10:26.890Z,8.70
2023-05-25T15:12:54.002Z,9.30
2023-05-25T15:15:21.156Z,8.90
2023-05-25T15:17:48.264Z,8.90
2023-05-25T15:20:15.793Z,9.10
2023-05-25T15:22:42.975Z,8.90
2023-05-25T15:25:10.526Z,8.80
2023-05-25T15:27:37.624Z,9.70
2023-05-25T15:30:07.402Z,10.20
2023-05-25T15:32:34.594Z,10.30
2023-05-25T15:35:01.812Z,9.90
2023-05-25T15:37:28.923Z,10.00
2023-05-25T15:39:56.476Z,10.30
2023-05-25T15:42:23.661Z,9.90
2023-05-25T15:44:51.059Z,9.60
2023-05-25T15:47:18.353Z,9.60
2023-05-25T15:49:45.529Z,9.30
2023-05-25T15:52:12.703Z,9.10
2023-05-25T15:54:39.828Z,9.00
2023-05-25T15:57:07.656Z,10.00
2023-05-25T15:59:34.874Z,9.20
2023-05-25T16:02:02.057Z,8.80
2023-05-25T16:04:29.276Z,10.10
2023-05-25T16:06:56.338Z,8.80
2023-05-25T16:09:23.485Z,9.80
2023-05-25T16:11:51.539Z,9.40
2023-05-25T16:14:18.812Z,9.30
2023-05-25T16:16:46.046Z,10.80
2023-05-25T16:19:14.198Z,10.60
2023-05-25T16:21:41.764Z,9.60
2023-05-25T16:24:09.527Z,10.30
2023-05-25T16:26:36.710Z,9.00
2023-05-25T16:29:04.074Z,9.10
2023-05-25T16:31:31.272Z,10.20
2023-05-25T16:33:58.452Z,9.60
2023-05-25T16:36:26.829Z,9.40
2023-05-25T16:38:54.077Z,9.70
2023-05-25T16:41:21.204Z,8.90
2023-05-25T16:43:48.609Z,9.40
2023-05-25T16:46:15.746Z,9.00
2023-05-25T16:48:42.924Z,10.00
2023-05-25T16:51:15.209Z,9.00
2023-05-25T16:53:43.862Z,10.80
2023-05-25T16:56:11.237Z,10.10
2023-05-25T16:58:38.422Z,10.10
2023-05-25T17:01:05.672Z,9.80
2023-05-25T17:03:33.090Z,10.20
2023-05-25T17:06:00.474Z,9.90
2023-05-25T17:08:28.038Z,9.80
2023-05-25T17:10:55.354Z,9.90
2023-05-25T17:13:22.983Z,9.30
2023-05-25T17:15:50.431Z,10.20
2023-05-25T17:18:18.008Z,10.20
2023-05-25T17:20:45.408Z,9.50
2023-05-25T17:23:12.712Z,10.50
2023-05-25T17:25:40.707Z,10.00
2023-05-25T17:28:08.399Z,10.10
2023-05-25T17:30:35.564Z,9.90
2023-05-25T17:33:02.913Z,9.30
2023-05-25T17:35:30.413Z,9.60
2023-05-25T17:37:57.898Z,10.50
2023-05-25T17:40:25.267Z,10.30
2023-05-25T17:42:52.448Z,10.10
2023-05-25T17:45:19.645Z,11.70
2023-05-25T17:47:46.807Z,10.50
2023-05-25T17:50:14.308Z,10.80
2023-05-25T17:52:42.756Z,9.30
2023-05-25T17:55:10.830Z,10.30
2023-05-25T17:57:38.020Z,11.10
2023-05-25T18:00:08.516Z,10.70
2023-05-25T18:02:44.859Z,10.90
2023-05-25T18:05:12.154Z,11.10
2023-05-25T18:07:39.310Z,10.70
2023-05-25T18:10:07.079Z,10.70
2023-05-25T18:12:34.317Z,10.90
2023-05-25T18:15:01.558Z,9.10
2023-05-25T18:17:28.682Z,10.00
2023-05-25T18:19:55.967Z,10.00
2023-05-25T18:22:23.346Z,10.80
2023-05-25T18:24:50.749Z,10.40
2023-05-25T18:27:17.878Z,11.00
2023-05-25T18:29:45.071Z,10.50
2023-05-25T18:32:12.158Z,11.60
2023-05-25T18:34:39.264Z,11.20
2023-05-25T18:37:06.713Z,11.00
2023-05-25T18:39:33.946Z,11.00
2023-05-25T18:42:01.745Z,9.70
2023-05-25T18:44:29.099Z,9.90
2023-05-25T18:46:57.021Z,10.10
2023-05-25T18:49:24.712Z,10.60
2023-05-25T18:51:51.972Z,10.50
2023-05-25T18:54:19.140Z,10.00
2023-05-25T18:56:46.518Z,10.30
2023-05-25T18:59:13.852Z,10.60
2023-05-25T19:01:41.036Z,10.00
2023-05-25T19:04:08.484Z,10.10
2023-05-25T19:06:36.270Z,10.60
2023-05-25T19:09:05.027Z,10.30
2023-05-25T19:11:32.334Z,11.40
2023-05-25T19:13:59.964Z,11.10
2023-05-25T19:16:27.501Z,10.90
2023-05-25T19:18:55.065Z,11.60
2023-05-25T19:21:22.361Z,11.20
2023-05-25T19:23:50.327Z,10.60
2023-05-25T19:26:18.025Z,11.90
2023-05-25T19:28:45.179Z,10.40
2023-05-25T19:31:12.601Z,11.00
2023-05-25T19:33:39.796Z,10.70
2023-05-25T19:36:07.518Z,11.00
2023-05-25T19:38:41.100Z,10.20
2023-05-25T19:41:09.678Z,10.90
2023-05-25T19:43:37.453Z,10.90
2023-05-25T19:46:05.183Z,10.00
2023-05-25T19:48:32.457Z,10.90
2023-05-25T19:51:01.186Z,10.50
2023-05-25T19:53:29.034Z,10.90
2023-05-25T19:55:56.308Z,11.60
2023-05-25T19:58:23.526Z,11.70
2023-05-25T20:00:51.006Z,11.70
2023-05-25T20:03:18.748Z,11.20
2023-05-25T20:05:46.556Z,11.40
2023-05-25T20:08:14.106Z,11.50
2023-05-25T20:10:42.468Z,11.40
2023-05-25T20:13:10.217Z,12.00
2023-05-25T20:15:37.585Z,11.70
2023-05-25T20:18:04.981Z,11.30
2023-05-25T20:20:32.356Z,12.10
2023-05-25T20:22:59.766Z,11.20
2023-05-25T20:25:27.070Z,11.60
2023-05-25T20:27:54.626Z,11.40
2023-05-25T20:30:22.289Z,12.00
2023-05-25T20:32:49.449Z,11.80
2023-05-25T20:35:17.239Z,12.10
2023-05-25T20:37:44.369Z,11.90
2023-05-25T20:40:12.404Z,11.70
2023-05-25T20:42:39.587Z,11.40
2023-05-25T20:45:07.851Z,11.00
2023-05-25T20:47:35.092Z,12.30
2023-05-25T20:50:02.353Z,11.10
2023-05-25T20:52:29.594Z,12.20
2023-05-25T20:54:56.738Z,12.50
2023-05-25T20:57:27.032Z,13.00
2023-05-25T20:59:59.706Z,13.50
2023-05-25T21:02:27.082Z,12.40
2023-05-25T21:04:54.842Z,13.50
2023-05-25T21:07:21.957Z,13.80
2023-05-25T21:09:49.414Z,14.20
2023-05-25T21:12:16.954Z,15.80
2023-05-25T21:14:44.100Z,15.40
2023-05-25T21:17:11.227Z,14.40
2023-05-25T21:19:38.378Z,14.20
2023-05-25T21:22:06.005Z,13.10
2023-05-25T21:24:33.354Z,14.20
2023-05-25T21:27:01.619Z,14.40
2023-05-25T21:29:28.739Z,12.50
2023-05-25T21:31:55.930Z,13.00
2023-05-25T21:34:23.291Z,11.50
2023-05-25T21:36:50.724Z,10.90
2023-05-25T21:39:20.049Z,10.60
2023-05-25T21:41:47.558Z,10.30
2023-05-25T21:44:14.644Z,9.90
2023-05-25T21:46:41.737Z,9.30
2023-05-25T21:49:08.867Z,9.70
2023-05-25T21:51:36.570Z,9.00
2023-05-25T21:54:03.747Z,9.50
2023-05-25T21:56:30.694Z,10.10
2023-05-25T21:58:57.810Z,9.90
2023-05-25T22:01:25.473Z,10.40
2023-05-25T22:03:52.410Z,10.60
2023-05-25T22:06:19.526Z,9.80
2023-05-25T22:08:46.779Z,9.80
2023-05-25T22:11:13.723Z,11.30
2023-05-25T22:13:40.682Z,10.40
2023-05-25T22:16:08.100Z,10.00
2023-05-25T22:18:37.074Z,10.60
2023-05-25T22:21:05.504Z,10.70
2023-05-25T22:23:32.398Z,10.40
2023-05-25T22:25:59.375Z,10.40
2023-05-25T22:28:26.641Z,10.30
2023-05-25T22:30:53.727Z,11.00
2023-05-25T22:33:20.726Z,10.70
2023-05-25T22:35:47.938Z,11.30
2023-05-25T22:38:15.640Z,11.90
2023-05-25T22:40:47.502Z,11.30
2023-05-25T22:43:14.779Z,12.00
2023-05-25T22:45:42.744Z,10.30
2023-05-25T22:48:10.413Z,11.50
2023-05-25T22:50:37.472Z,11.50
2023-05-25T22:53:07.024Z,11.20
2023-05-25T22:55:33.882Z,10.90
2023-05-25T22:58:00.978Z,10.30
2023-05-25T23:00:28.229Z,9.40
2023-05-25T23:02:59.073Z,9.70
2023-05-25T23:05:27.441Z,10.40
2023-05-25T23:07:54.435Z,9.90
2023-05-25T23:10:21.590Z,8.80
2023-05-25T23:12:48.692Z,9.70
2023-05-25T23:15:18.393Z,9.00
2023-05-25T23:17:45.516Z,8.60
2023-05-25T23:20:15.077Z,9.00
2023-05-25T23:22:43.148Z,8.30
2023-05-25T23:25:11.390Z,9.10
2023-05-25T23:27:38.658Z,8.30
2023-05-25T23:30:08.886Z,8.50
2023-05-25T23:32:36.244Z,8.10
2023-05-25T23:35:03.388Z,7.70
2023-05-25T23:37:30.286Z,7.60
2023-05-25T23:39:57.870Z,7.90
2023-05-25T23:42:24.937Z,7.70
2023-05-25T23:44:51.916Z,8.20
2023-05-25T23:47:18.827Z,7.60
2023-05-25T23:49:46.123Z,8.30
2023-05-25T23:52:13.015Z,8.70
2023-05-25T23:54:39.881Z,8.90
2023-05-25T23:57:07.453Z,8.20
2023-05-25T23:59:34.312Z,8.70
